Time;durP1;ratioP1;P1;durP2;ratioP2;P2;SDS_P1;SDS_P2;PMS_P1;PMS_P2;Temp;Humidity;BMP_temperature;BMP_pressure;BME280_temperature;BME280_humidity;BME280_pressure;Samples;Min_cycle;Max_cycle;Signal;HPM_P1;HPM_P2
2022/05/21 00:00:23;;;;;;;66.85;60.45;;;17.30;99.90;;;;;;4941146;29;20210;-64
2022/05/21 00:02:50;;;;;;;55.27;48.43;;;17.20;99.90;;;;;;4938906;29;20198;-65
2022/05/21 00:05:17;;;;;;;228.87;207.90;;;17.20;99.90;;;;;;4928171;29;20295;-65
2022/05/21 00:07:43;;;;;;;123.20;111.37;;;17.20;99.90;;;;;;4932969;29;20261;-66
2022/05/21 00:10:09;;;;;;;52.77;43.80;;;17.10;99.90;;;;;;4935850;29;20215;-67
2022/05/21 00:12:35;;;;;;;35.70;32.00;;;17.10;99.90;;;;;;4933733;28;20219;-65
2022/05/21 00:15:00;;;;;;;2.53;1.60;;;17.10;99.90;;;;;;4934949;28;20254;-64
2022/05/21 00:17:26;;;;;;;3.93;1.70;;;17.00;99.90;;;;;;4948593;29;20238;-65
2022/05/21 00:19:51;;;;;;;1.70;1.60;;;17.10;99.90;;;;;;4937603;29;20319;-66
2022/05/21 00:22:17;;;;;;;1.80;1.70;;;17.00;99.90;;;;;;4937067;29;20194;-66
2022/05/21 00:24:43;;;;;;;2.07;1.77;;;17.00;99.90;;;;;;4939565;29;20298;-66
2022/05/21 00:27:08;;;;;;;1.77;1.67;;;17.00;99.90;;;;;;4936559;28;20361;-66
2022/05/21 00:29:34;;;;;;;3.40;1.60;;;17.00;99.90;;;;;;4938464;29;20211;-64
2022/05/21 00:32:00;;;;;;;1.90;1.13;;;17.00;99.90;;;;;;4938106;29;20182;-63
2022/05/21 00:34:25;;;;;;;2.17;1.70;;;17.00;99.90;;;;;;4927646;29;20229;-64
2022/05/21 00:36:51;;;;;;;1.80;1.63;;;17.00;99.90;;;;;;4938760;29;20187;-63
2022/05/21 00:39:17;;;;;;;2.40;1.60;;;16.90;99.90;;;;;;4927526;29;20942;-64
2022/05/21 00:41:43;;;;;;;2.93;2.07;;;16.90;99.90;;;;;;4930184;29;20293;-63
2022/05/21 00:44:09;;;;;;;3.80;2.07;;;16.80;99.90;;;;;;4929254;29;20721;-62
2022/05/21 00:46:40;;;;;;;1.87;1.70;;;16.80;99.90;;;;;;4940528;29;20333;-63
2022/05/21 00:49:24;;;;;;;2.13;1.90;;;16.80;99.90;;;;;;4937498;29;20203;-63
2022/05/21 00:52:10;;;;;;;1.90;1.70;;;16.80;99.90;;;;;;4910645;29;20202;-64
2022/05/21 00:54:45;;;;;;;2.33;2.13;;;16.80;99.90;;;;;;4935236;29;20211;-63
2022/05/21 00:57:14;;;;;;;3.03;2.27;;;16.80;99.90;;;;;;4930368;29;20197;-63
2022/05/21 00:59:47;;;;;;;2.53;2.33;;;16.80;99.90;;;;;;4927180;29;20246;-64
2022/05/21 01:02:19;;;;;;;2.40;2.30;;;16.70;99.90;;;;;;4937289;29;20265;-64
2022/05/21 01:04:46;;;;;;;3.73;2.33;;;16.60;99.90;;;;;;4922773;29;20202;-64
2022/05/21 01:07:14;;;;;;;2.00;1.90;;;16.70;99.90;;;;;;4932209;28;20199;-64
2022/05/21 01:09:43;;;;;;;2.00;1.90;;;16.60;99.90;;;;;;4930547;29;20293;-64
2022/05/21 01:12:09;;;;;;;1.60;1.50;;;16.60;99.90;;;;;;4934211;28;20190;-64
2022/05/21 01:14:36;;;;;;;3.07;2.30;;;16.50;99.90;;;;;;4929701;29;20719;-64
2022/05/21 01:17:03;;;;;;;2.43;2.20;;;16.50;99.90;;;;;;4946270;28;20200;-63
2022/05/21 01:19:29;;;;;;;10.93;9.83;;;16.40;99.90;;;;;;4927460;29;20222;-66
2022/05/21 01:21:55;;;;;;;211.83;191.97;;;16.30;99.90;;;;;;4933752;29;20672;-66
2022/05/21 01:24:20;;;;;;;193.23;175.73;;;16.20;99.90;;;;;;4935639;29;20694;-80
2022/05/21 01:26:46;;;;;;;120.73;108.17;;;16.20;99.90;;;;;;4948293;29;20629;-66
2022/05/21 01:29:18;;;;;;;8.07;2.33;;;16.20;99.90;;;;;;4928989;29;20570;-66
2022/05/21 01:31:52;;;;;;;2.50;1.73;;;16.20;99.90;;;;;;4924234;29;20190;-67
2022/05/21 01:34:18;;;;;;;3.90;1.60;;;16.10;99.90;;;;;;4926444;29;20210;-66
2022/05/21 01:36:43;;;;;;;1.60;1.50;;;16.10;99.90;;;;;;4936136;29;20183;-66
2022/05/21 01:39:09;;;;;;;1.90;1.80;;;16.10;99.90;;;;;;4939545;29;20208;-66
2022/05/21 01:41:34;;;;;;;1.67;1.57;;;16.10;99.90;;;;;;4936839;29;20206;-66
2022/05/21 01:46:44;;;;;;;5.33;3.73;;;15.90;99.90;;;;;;4926323;29;20600;-66
2022/05/21 01:49:10;;;;;;;3.23;1.90;;;15.90;99.90;;;;;;4928950;29;20199;-73
2022/05/21 01:51:36;;;;;;;37.40;33.70;;;15.80;99.90;;;;;;4933286;29;20315;-74
2022/05/21 01:54:01;;;;;;;2.13;2.03;;;15.80;99.90;;;;;;4938353;28;20245;-74
2022/05/21 01:56:26;;;;;;;3.50;2.00;;;15.60;99.90;;;;;;4932291;29;20199;-73
2022/05/21 01:58:52;;;;;;;2.60;1.90;;;15.60;99.90;;;;;;4937297;29;20570;-74
2022/05/21 02:01:18;;;;;;;4.23;1.77;;;15.60;99.90;;;;;;4934087;29;20222;-76
2022/05/21 02:03:43;;;;;;;9.70;2.30;;;15.60;99.90;;;;;;4945262;29;20194;-75
2022/05/21 02:06:09;;;;;;;2.13;1.93;;;15.60;99.90;;;;;;4929606;29;20207;-72
2022/05/21 02:08:35;;;;;;;2.00;1.90;;;15.50;99.90;;;;;;4940055;29;20203;-75
2022/05/21 02:11:01;;;;;;;1.83;1.73;;;15.50;99.90;;;;;;4927165;29;20427;-75
2022/05/21 02:13:29;;;;;;;2.10;1.90;;;15.50;99.90;;;;;;4929611;29;20301;-72
2022/05/21 02:15:56;;;;;;;2.53;2.30;;;15.50;99.90;;;;;;4935413;28;20199;-71
2022/05/21 02:18:21;;;;;;;2.37;2.17;;;15.40;99.90;;;;;;4928839;29;20195;-72
2022/05/21 02:20:48;;;;;;;2.83;2.40;;;15.40;99.90;;;;;;4888038;29;20679;-72
2022/05/21 02:23:14;;;;;;;2.60;2.23;;;15.40;99.90;;;;;;4932513;28;20194;-72
2022/05/21 02:25:40;;;;;;;3.67;2.00;;;15.40;99.90;;;;;;4941390;29;20677;-73
2022/05/21 02:28:06;;;;;;;3.10;1.80;;;15.40;99.90;;;;;;4945395;29;20214;-72
2022/05/21 02:30:32;;;;;;;1.80;1.70;;;15.40;99.90;;;;;;4930994;29;20215;-71
2022/05/21 02:32:57;;;;;;;2.40;2.00;;;15.50;99.90;;;;;;4932947;29;20207;-71
2022/05/21 02:35:23;;;;;;;1.90;1.80;;;15.40;99.90;;;;;;4932061;29;20200;-72
2022/05/21 02:40:32;;;;;;;2.97;2.63;;;15.40;99.90;;;;;;4931893;29;20198;-71
2022/05/21 02:42:58;;;;;;;5.27;2.83;;;15.30;99.90;;;;;;4930017;29;20681;-71
2022/05/21 02:45:28;;;;;;;3.47;2.33;;;15.30;99.90;;;;;;4931603;29;20282;-72
2022/05/21 02:47:54;;;;;;;2.50;2.37;;;15.30;99.90;;;;;;4939205;28;20665;-72
2022/05/21 02:50:24;;;;;;;1.93;1.83;;;15.20;99.90;;;;;;4943456;28;20203;-72
2022/05/21 02:52:50;;;;;;;1.90;1.80;;;15.20;99.90;;;;;;4929707;29;20320;-72
2022/05/21 02:55:16;;;;;;;3.97;2.63;;;15.30;99.90;;;;;;4935071;29;20198;-71
2022/05/21 02:57:42;;;;;;;4.40;2.23;;;15.30;99.90;;;;;;4938169;28;20233;-73
2022/05/21 03:00:12;;;;;;;3.90;2.70;;;15.20;99.90;;;;;;4946569;28;20206;-72
2022/05/21 03:02:38;;;;;;;3.33;2.37;;;15.20;99.90;;;;;;4940328;28;20210;-73
2022/05/21 03:05:04;;;;;;;5.03;2.17;;;15.20;99.90;;;;;;4939256;29;20194;-73
2022/05/21 03:07:31;;;;;;;2.40;2.20;;;15.10;99.90;;;;;;4929114;29;20331;-73
2022/05/21 03:12:41;;;;;;;3.80;2.10;;;15.00;99.90;;;;;;4926659;29;20878;-72
2022/05/21 03:15:07;;;;;;;2.63;2.43;;;14.90;99.90;;;;;;4932914;29;20203;-73
2022/05/21 03:17:32;;;;;;;2.97;2.77;;;14.90;99.90;;;;;;4941113;28;20202;-73
2022/05/21 03:19:58;;;;;;;3.03;2.57;;;14.80;99.90;;;;;;4936191;29;20189;-72
2022/05/21 03:22:23;;;;;;;4.47;2.70;;;14.80;99.90;;;;;;4940420;29;20225;-72
2022/05/21 03:24:49;;;;;;;5.67;2.43;;;14.70;99.90;;;;;;4942220;29;20179;-73
2022/05/21 03:27:15;;;;;;;7.23;3.10;;;14.60;99.90;;;;;;4928971;29;20205;-73
2022/05/21 03:29:40;;;;;;;2.37;2.17;;;14.60;99.90;;;;;;4938365;29;20214;-72
2022/05/21 03:32:09;;;;;;;3.80;1.80;;;14.60;99.90;;;;;;4928977;29;20203;-73
2022/05/21 03:34:36;;;;;;;3.77;2.30;;;14.60;99.90;;;;;;4938789;29;20465;-73
2022/05/21 03:37:02;;;;;;;3.30;2.03;;;14.50;99.90;;;;;;4931355;29;20214;-74
2022/05/21 03:39:29;;;;;;;2.07;1.77;;;14.50;99.90;;;;;;4941100;28;20215;-72
2022/05/21 03:41:54;;;;;;;2.40;1.80;;;14.50;99.90;;;;;;4930275;29;20296;-72
2022/05/21 03:44:20;;;;;;;2.00;1.67;;;14.40;99.90;;;;;;4941564;29;20713;-73
2022/05/21 03:46:45;;;;;;;2.10;1.90;;;14.30;99.90;;;;;;4931773;29;20241;-72
2022/05/21 03:49:11;;;;;;;1.73;1.63;;;14.30;99.90;;;;;;4932602;29;20206;-72
2022/05/21 03:51:39;;;;;;;1.70;1.60;;;14.20;99.90;;;;;;4941782;29;20195;-72
2022/05/21 03:54:05;;;;;;;4.07;2.50;;;14.20;99.90;;;;;;4938060;29;20222;-72
2022/05/21 03:56:31;;;;;;;1.70;1.37;;;14.20;99.90;;;;;;4946809;29;20558;-74
2022/05/21 03:58:56;;;;;;;2.07;1.97;;;14.10;99.90;;;;;;4929479;29;20699;-72
2022/05/21 04:01:22;;;;;;;2.47;1.97;;;14.10;99.90;;;;;;4934978;29;20237;-73
2022/05/21 04:03:50;;;;;;;2.03;1.53;;;14.10;99.90;;;;;;4940924;29;20248;-74
2022/05/21 04:06:15;;;;;;;2.13;1.90;;;14.10;99.90;;;;;;4937644;29;20198;-73
2022/05/21 04:08:40;;;;;;;2.27;1.67;;;13.90;99.90;;;;;;4932025;29;20696;-71
2022/05/21 04:11:06;;;;;;;1.93;1.83;;;13.90;99.90;;;;;;4944641;29;20743;-76
2022/05/21 04:13:31;;;;;;;2.33;1.90;;;13.90;99.90;;;;;;4931934;29;20221;-71
2022/05/21 04:15:57;;;;;;;1.73;1.63;;;13.90;99.90;;;;;;4929980;29;20222;-71
2022/05/21 04:18:22;;;;;;;2.93;1.67;;;13.90;99.90;;;;;;4934201;29;20286;-71
2022/05/21 04:20:48;;;;;;;1.83;1.70;;;13.80;99.90;;;;;;4929481;29;20602;-71
2022/05/21 04:23:13;;;;;;;2.27;1.50;;;13.80;99.90;;;;;;4940069;29;20276;-71
2022/05/21 04:25:39;;;;;;;1.77;1.67;;;13.90;99.90;;;;;;4946179;29;20201;-71
2022/05/21 04:28:04;;;;;;;2.07;1.50;;;13.90;99.90;;;;;;4936464;29;20571;-71
2022/05/21 04:30:31;;;;;;;1.67;1.57;;;13.90;99.90;;;;;;4929982;29;20199;-73
2022/05/21 04:32:58;;;;;;;1.90;1.30;;;13.90;99.90;;;;;;4927533;29;20270;-72
2022/05/21 04:35:24;;;;;;;1.50;1.40;;;13.90;99.90;;;;;;4929399;29;20206;-71
2022/05/21 04:37:50;;;;;;;1.43;1.37;;;13.90;99.90;;;;;;4927733;29;20206;-72
2022/05/21 04:40:22;;;;;;;2.17;1.63;;;14.00;99.90;;;;;;4929302;29;20195;-70
2022/05/21 04:42:48;;;;;;;2.33;1.80;;;13.90;99.90;;;;;;4938200;29;20281;-70
2022/05/21 04:45:15;;;;;;;1.40;1.30;;;13.90;99.90;;;;;;4932816;28;20313;-69
2022/05/21 04:47:40;;;;;;;4.90;2.20;;;14.00;99.90;;;;;;4935421;28;20206;-69
2022/05/21 04:50:07;;;;;;;1.73;1.63;;;13.90;99.90;;;;;;4937759;29;20282;-69
2022/05/21 04:52:34;;;;;;;2.20;1.90;;;14.00;99.90;;;;;;4928753;29;20681;-69
2022/05/21 04:55:08;;;;;;;2.83;2.40;;;14.00;99.90;;;;;;4942336;29;20325;-69
2022/05/21 04:57:33;;;;;;;3.83;2.30;;;13.90;99.90;;;;;;4928910;29;20685;-69
2022/05/21 04:59:59;;;;;;;5.50;2.77;;;13.70;99.90;;;;;;4948750;29;20189;-68
2022/05/21 05:02:24;;;;;;;5.87;2.40;;;13.70;99.90;;;;;;4934874;29;20273;-68
2022/05/21 05:04:50;;;;;;;2.40;2.20;;;13.60;99.90;;;;;;4929221;29;20617;-68
2022/05/21 05:07:19;;;;;;;2.50;1.97;;;13.60;99.90;;;;;;4931782;29;20201;-68
2022/05/21 05:09:45;;;;;;;2.40;2.20;;;13.70;99.90;;;;;;4941813;28;20246;-68
2022/05/21 05:12:11;;;;;;;3.47;2.83;;;13.70;99.90;;;;;;4930851;29;20198;-68
2022/05/21 05:14:37;;;;;;;4.03;2.60;;;13.70;99.90;;;;;;4938055;29;20305;-68
2022/05/21 05:17:04;;;;;;;2.83;2.53;;;13.70;99.90;;;;;;4929492;29;20190;-68
2022/05/21 05:19:31;;;;;;;5.13;2.90;;;13.60;99.90;;;;;;4938279;28;20209;-69
2022/05/21 05:21:57;;;;;;;4.20;2.53;;;13.60;99.90;;;;;;4938059;28;20668;-69
2022/05/21 05:24:23;;;;;;;2.90;2.10;;;13.50;99.90;;;;;;4940796;29;20262;-69
2022/05/21 05:26:48;;;;;;;2.33;2.00;;;13.60;99.90;;;;;;4942133;28;20656;-69
2022/05/21 05:29:14;;;;;;;3.00;2.40;;;13.60;99.90;;;;;;4936076;29;20232;-69
2022/05/21 05:31:39;;;;;;;4.43;2.33;;;13.60;99.90;;;;;;4947302;29;20194;-69
2022/05/21 05:34:05;;;;;;;3.63;2.77;;;13.50;99.90;;;;;;4929244;29;20364;-69
2022/05/21 05:36:30;;;;;;;7.30;2.10;;;13.50;99.90;;;;;;4934199;29;20202;-69
2022/05/21 05:38:59;;;;;;;2.83;1.80;;;13.60;99.90;;;;;;4936183;29;20570;-70
2022/05/21 05:41:26;;;;;;;2.80;2.43;;;13.60;99.90;;;;;;4929222;29;20262;-69
2022/05/21 05:43:53;;;;;;;2.87;1.70;;;13.70;99.90;;;;;;4931038;28;20321;-69
2022/05/21 05:46:19;;;;;;;6.80;2.50;;;13.70;99.90;;;;;;4936064;29;20190;-69
2022/05/21 05:48:44;;;;;;;2.47;2.27;;;13.80;99.90;;;;;;4930496;29;20256;-70
2022/05/21 05:51:10;;;;;;;3.67;2.43;;;13.80;99.90;;;;;;4935070;29;20848;-69
2022/05/21 05:53:35;;;;;;;2.17;2.00;;;13.80;99.90;;;;;;4935465;29;20245;-70
2022/05/21 05:56:00;;;;;;;7.10;3.03;;;13.90;99.90;;;;;;4942385;29;20194;-70
2022/05/21 06:01:10;;;;;;;5.30;2.80;;;13.80;99.90;;;;;;4938389;29;20583;-69
2022/05/21 06:03:36;;;;;;;3.00;2.03;;;13.90;99.90;;;;;;4931607;29;20203;-69
2022/05/21 06:06:03;;;;;;;3.73;2.27;;;14.00;99.90;;;;;;4933996;28;20582;-69
2022/05/21 06:08:28;;;;;;;5.23;2.03;;;14.10;99.90;;;;;;4932338;28;20221;-69
2022/05/21 06:10:54;;;;;;;2.73;1.80;;;14.10;99.90;;;;;;4936948;29;20206;-69
2022/05/21 06:13:19;;;;;;;2.87;2.30;;;14.20;99.90;;;;;;4930523;29;20214;-69
2022/05/21 06:15:44;;;;;;;2.63;2.17;;;14.40;99.90;;;;;;4938332;29;20205;-68
2022/05/21 06:18:16;;;;;;;3.97;2.27;;;14.40;99.90;;;;;;4939162;29;20204;-69
2022/05/21 06:20:43;;;;;;;3.87;2.90;;;14.40;99.90;;;;;;4942874;28;20248;-69
2022/05/21 06:23:10;;;;;;;3.67;2.23;;;14.40;99.90;;;;;;4934163;28;20940;-70
2022/05/21 06:25:35;;;;;;;4.97;3.00;;;14.40;99.90;;;;;;4929639;29;20195;-69
2022/05/21 06:28:03;;;;;;;3.57;2.60;;;14.30;99.90;;;;;;4937422;29;20293;-68
2022/05/21 06:30:31;;;;;;;4.37;2.13;;;14.20;99.90;;;;;;4944240;28;20201;-69
2022/05/21 06:32:57;;;;;;;6.17;2.73;;;14.20;99.90;;;;;;4926309;29;20293;-69
2022/05/21 06:35:23;;;;;;;3.20;2.30;;;14.30;99.90;;;;;;4928355;29;20194;-68
2022/05/21 06:37:48;;;;;;;2.70;2.40;;;14.20;99.90;;;;;;4941319;29;20202;-70
2022/05/21 06:40:15;;;;;;;1.77;1.67;;;14.30;99.90;;;;;;4928556;29;20202;-70
2022/05/21 06:42:41;;;;;;;3.20;2.00;;;14.30;99.90;;;;;;4934147;28;20553;-70
2022/05/21 06:45:08;;;;;;;6.53;2.77;;;14.20;99.90;;;;;;4934719;29;20991;-71
2022/05/21 06:47:33;;;;;;;2.10;2.00;;;14.40;99.90;;;;;;4935864;28;20676;-69
2022/05/21 06:49:59;;;;;;;2.23;2.13;;;14.40;99.90;;;;;;4934641;29;20191;-71
2022/05/21 06:52:27;;;;;;;1.93;1.83;;;14.30;99.90;;;;;;4925895;29;20882;-75
2022/05/21 06:54:53;;;;;;;2.33;2.13;;;14.40;99.90;;;;;;4944275;29;20222;-70
2022/05/21 06:57:19;;;;;;;2.50;1.53;;;14.50;99.90;;;;;;4925801;29;20265;-70
2022/05/21 06:59:45;;;;;;;5.70;1.90;;;14.60;99.90;;;;;;4939714;29;20206;-71
2022/05/21 07:02:11;;;;;;;2.27;2.03;;;14.70;99.90;;;;;;4929374;29;20285;-70
2022/05/21 07:07:32;;;;;;;1.50;1.40;;;14.50;99.90;;;;;;4929219;29;20213;-70
2022/05/21 07:09:58;;;;;;;5.70;1.53;;;14.60;99.90;;;;;;4932966;29;20195;-70
2022/05/21 07:12:24;;;;;;;2.90;2.03;;;14.70;99.90;;;;;;4928529;29;20289;-70
2022/05/21 07:14:49;;;;;;;1.87;1.70;;;14.60;99.90;;;;;;4926963;29;20213;-69
2022/05/21 07:17:16;;;;;;;3.03;1.77;;;14.50;99.90;;;;;;4868226;29;21221;-70
2022/05/21 07:19:42;;;;;;;1.97;1.60;;;14.50;99.90;;;;;;4947089;29;20284;-71
2022/05/21 07:22:09;;;;;;;2.67;2.20;;;14.40;99.90;;;;;;4928625;29;20214;-69
2022/05/21 07:24:44;;;;;;;3.13;2.33;;;14.30;99.90;;;;;;4930900;29;20179;-69
2022/05/21 07:27:12;;;;;;;6.23;1.73;;;14.30;99.90;;;;;;4943013;29;20199;-68
2022/05/21 07:29:38;;;;;;;1.77;1.67;;;14.40;99.90;;;;;;4933109;29;20189;-69
2022/05/21 07:32:05;;;;;;;2.60;1.97;;;14.40;99.90;;;;;;4931594;28;20241;-69
2022/05/21 07:34:30;;;;;;;1.17;1.10;;;14.60;99.90;;;;;;4943704;28;20210;-69
2022/05/21 07:36:55;;;;;;;3.77;1.47;;;14.50;99.90;;;;;;4928676;29;20187;-67
2022/05/21 07:39:21;;;;;;;5.07;1.60;;;14.60;99.90;;;;;;4942426;29;21127;-70
2022/05/21 07:41:46;;;;;;;3.00;1.80;;;14.50;99.90;;;;;;4937028;29;20242;-70
2022/05/21 07:44:12;;;;;;;1.60;1.40;;;14.50;99.90;;;;;;4933553;29;20234;-69
2022/05/21 07:46:37;;;;;;;3.67;2.10;;;14.60;99.90;;;;;;4928441;29;20203;-70
2022/05/21 07:49:03;;;;;;;4.03;2.20;;;14.70;99.90;;;;;;4928465;29;20207;-69
2022/05/21 07:51:30;;;;;;;2.63;2.33;;;14.80;99.90;;;;;;4930257;29;20704;-69
2022/05/21 07:53:55;;;;;;;2.80;1.70;;;14.90;99.90;;;;;;4928342;29;20818;-68
2022/05/21 07:56:21;;;;;;;2.57;1.83;;;15.10;99.90;;;;;;4940948;29;20187;-68
2022/05/21 07:58:47;;;;;;;3.63;1.93;;;15.40;99.90;;;;;;4932966;29;20206;-68
2022/05/21 08:01:13;;;;;;;4.40;1.67;;;15.60;99.90;;;;;;4942988;28;20270;-68
2022/05/21 08:03:38;;;;;;;6.00;2.47;;;15.70;99.90;;;;;;4931798;29;20282;-70
2022/05/21 08:06:04;;;;;;;5.53;2.77;;;15.60;99.90;;;;;;4939879;29;20297;-70
2022/05/21 08:08:30;;;;;;;5.13;2.47;;;15.50;99.90;;;;;;4936211;29;20206;-68
2022/05/21 08:10:56;;;;;;;2.40;2.07;;;15.60;99.90;;;;;;4940378;29;20265;-70
2022/05/21 08:13:21;;;;;;;1.90;1.80;;;15.80;99.90;;;;;;4933226;29;20720;-69
2022/05/21 08:15:47;;;;;;;2.83;2.27;;;16.00;99.90;;;;;;4939705;28;20178;-70
2022/05/21 08:18:13;;;;;;;4.17;2.50;;;16.10;99.90;;;;;;4936648;29;20191;-69
2022/05/21 08:20:40;;;;;;;2.90;2.10;;;16.40;99.90;;;;;;4938808;28;20186;-70
2022/05/21 08:28:35;;;;;;;3.50;1.77;;;16.60;99.90;;;;;;4919597;29;20381;-71
2022/05/21 08:31:01;;;;;;;2.50;1.77;;;16.40;99.90;;;;;;4947185;29;20292;-73
2022/05/21 08:33:28;;;;;;;4.83;1.90;;;16.50;99.90;;;;;;4937203;28;20306;-78
2022/05/21 08:35:53;;;;;;;4.20;1.77;;;16.50;99.90;;;;;;4935244;29;20183;-78
2022/05/21 08:38:19;;;;;;;1.50;1.20;;;16.60;99.90;;;;;;4935172;29;20432;-78
2022/05/21 08:40:57;;;;;;;2.23;1.90;;;16.90;99.90;;;;;;4938198;29;20687;-78
2022/05/21 08:43:48;;;;;;;6.37;2.33;;;17.00;99.90;;;;;;4932028;29;20589;-78
2022/05/21 08:46:58;;;;;;;3.30;2.10;;;17.00;99.90;;;;;;4935649;29;20673;-78
2022/05/21 08:49:33;;;;;;;5.27;2.40;;;16.40;99.90;;;;;;4926726;29;20217;-79
2022/05/21 08:52:06;;;;;;;1.93;1.70;;;16.00;99.90;;;;;;4910863;29;20191;-79
2022/05/21 08:54:39;;;;;;;4.27;2.90;;;15.70;99.90;;;;;;4935020;29;20493;-79
2022/05/21 08:57:07;;;;;;;5.03;3.20;;;15.40;99.90;;;;;;4943658;29;20649;-79
2022/05/21 08:59:41;;;;;;;3.80;3.37;;;14.90;99.90;;;;;;4938740;29;20268;-81
2022/05/21 09:02:13;;;;;;;5.33;3.80;;;14.30;99.90;;;;;;4922443;29;20629;-71
2022/05/21 09:04:39;;;;;;;4.90;4.07;;;14.10;99.90;;;;;;4919672;29;20661;-63
2022/05/21 09:07:15;;;;;;;4.47;4.10;;;14.20;99.90;;;;;;4929148;29;20238;-63
2022/05/21 09:10:21;;;;;;;8.07;4.40;;;14.30;99.90;;;;;;4920540;29;20213;-61
2022/05/21 09:13:00;;;;;;;3.33;3.10;;;14.50;99.90;;;;;;4917254;29;20190;-63
2022/05/21 09:18:14;;;;;;;6.30;3.17;;;14.90;99.90;;;;;;4926868;29;20679;-62
2022/05/21 09:20:57;;;;;;;4.07;2.90;;;14.90;99.90;;;;;;4928033;28;20294;-61
2022/05/21 09:23:22;;;;;;;4.90;2.97;;;14.90;99.90;;;;;;4926652;29;20206;-61
2022/05/21 09:26:05;;;;;;;8.50;3.57;;;15.00;99.90;;;;;;4927898;29;20187;-60
2022/05/21 09:28:31;;;;;;;3.27;2.60;;;15.10;99.90;;;;;;4931059;29;20217;-60
2022/05/21 09:30:58;;;;;;;4.20;2.93;;;14.90;99.90;;;;;;4942526;29;20190;-59
2022/05/21 09:33:40;;;;;;;5.40;3.23;;;15.00;99.90;;;;;;4927452;28;20665;-60
2022/05/21 09:36:07;;;;;;;5.30;3.20;;;15.00;99.90;;;;;;4909351;29;20192;-61
2022/05/21 09:38:53;;;;;;;4.67;2.33;;;15.10;99.90;;;;;;4932110;29;20222;-60
2022/05/21 09:41:22;;;;;;;4.23;3.10;;;15.10;99.90;;;;;;4918498;29;20221;-60
2022/05/21 09:46:35;;;;;;;4.90;4.23;;;15.00;99.90;;;;;;4920644;29;20194;-61
2022/05/21 09:49:30;;;;;;;5.97;3.90;;;15.00;99.90;;;;;;4926553;29;20211;-61
2022/05/21 09:52:05;;;;;;;3.23;3.03;;;15.20;99.90;;;;;;4917748;29;20245;-61
2022/05/21 09:54:41;;;;;;;5.37;3.60;;;15.10;99.90;;;;;;4937934;28;20225;-60
2022/05/21 09:57:24;;;;;;;5.10;4.60;;;15.10;99.90;;;;;;4926164;29;20194;-61
2022/05/21 10:00:26;;;;;;;6.73;3.77;;;15.00;99.90;;;;;;4935672;29;20605;-59
2022/05/21 10:02:54;;;;;;;4.37;3.90;;;15.10;99.90;;;;;;4931858;29;20214;-59
2022/05/21 10:05:45;;;;;;;6.60;5.03;;;15.40;99.90;;;;;;4940316;29;20198;-61
2022/05/21 10:11:18;;;;;;;7.67;6.17;;;16.00;99.90;;;;;;4896441;29;20214;-61
2022/05/21 10:13:49;;;;;;;6.93;6.00;;;16.10;99.90;;;;;;4943173;29;20212;-59
2022/05/21 10:16:35;;;;;;;7.70;6.90;;;16.40;99.90;;;;;;4923408;29;20237;-70
2022/05/21 10:19:13;;;;;;;8.63;7.20;;;16.50;99.90;;;;;;4941984;29;20213;-62
2022/05/21 10:22:03;;;;;;;6.57;6.07;;;16.20;99.90;;;;;;4927635;29;20209;-63
2022/05/21 10:24:56;;;;;;;7.00;6.40;;;16.30;99.90;;;;;;4928354;29;20286;-61
2022/05/21 10:27:47;;;;;;;8.37;6.43;;;16.20;99.90;;;;;;4933664;29;20214;-63
2022/05/21 10:30:24;;;;;;;8.90;7.43;;;16.30;99.90;;;;;;4939320;29;20210;-63
2022/05/21 10:33:08;;;;;;;6.30;5.70;;;16.30;99.90;;;;;;4942271;29;20515;-62
2022/05/21 10:36:13;;;;;;;7.37;6.07;;;16.40;99.90;;;;;;4926193;29;20215;-63
2022/05/21 10:38:44;;;;;;;8.30;5.50;;;16.60;99.90;;;;;;4938096;28;20210;-63
2022/05/21 10:41:37;;;;;;;6.80;6.20;;;16.80;99.90;;;;;;4943665;29;20241;-63
2022/05/21 10:44:29;;;;;;;9.23;5.60;;;17.10;99.90;;;;;;4916067;29;20218;-62
2022/05/21 10:47:04;;;;;;;6.90;5.87;;;17.20;99.90;;;;;;4930485;29;20282;-62
2022/05/21 10:49:42;;;;;;;6.00;5.40;;;17.40;99.90;;;;;;4922939;29;20185;-62
2022/05/21 10:52:28;;;;;;;8.63;5.60;;;17.40;99.90;;;;;;4926336;29;20203;-62
2022/05/21 10:55:16;;;;;;;5.33;3.97;;;17.10;99.90;;;;;;4921374;29;20269;-62
2022/05/21 10:58:23;;;;;;;5.73;5.00;;;16.90;99.90;;;;;;4937993;28;20289;-62
2022/05/21 11:01:12;;;;;;;8.13;4.80;;;16.70;99.90;;;;;;4944042;29;20971;-61
2022/05/21 11:04:04;;;;;;;6.23;5.33;;;16.80;99.90;;;;;;4939659;29;20557;-61
2022/05/21 11:06:50;;;;;;;7.63;5.23;;;17.10;99.90;;;;;;4943304;28;20196;-61
2022/05/21 11:09:47;;;;;;;5.03;4.57;;;16.90;99.90;;;;;;4942383;29;20194;-61
2022/05/21 11:12:15;;;;;;;10.00;4.80;;;16.60;99.90;;;;;;4900688;29;20226;-60
2022/05/21 11:14:49;;;;;;;7.33;5.67;;;16.80;99.90;;;;;;4946838;28;20246;-61
2022/05/21 11:17:41;;;;;;;6.03;4.50;;;17.50;99.90;;;;;;4929829;29;20199;-60
2022/05/21 11:20:18;;;;;;;4.73;3.80;;;17.80;99.90;;;;;;4945417;29;20932;-62
2022/05/21 11:23:07;;;;;;;4.60;3.90;;;17.90;99.70;;;;;;4922465;29;20239;-61
2022/05/21 11:25:45;;;;;;;4.97;3.70;;;17.90;99.60;;;;;;4929791;29;20211;-62
2022/05/21 11:28:31;;;;;;;4.63;4.00;;;17.70;99.60;;;;;;4937648;29;20199;-64
2022/05/21 11:31:07;;;;;;;7.60;4.97;;;17.60;99.90;;;;;;4941876;29;20662;-64
2022/05/21 11:39:26;;;;;;;5.40;3.43;;;19.60;98.00;;;;;;4898425;29;20292;-66
2022/05/21 11:42:12;;;;;;;7.60;4.63;;;19.70;97.80;;;;;;4894389;29;20314;-67
2022/05/21 11:45:01;;;;;;;7.90;4.57;;;20.30;96.10;;;;;;4911745;28;20232;-69
2022/05/21 11:47:27;;;;;;;39.50;3.65;;;20.60;95.50;;;;;;4928667;29;20249;-77
2022/05/21 11:50:13;;;;;;;4.90;4.40;;;20.10;95.30;;;;;;4933125;29;20289;-66
2022/05/21 11:52:38;;;;;;;13.00;4.70;;;19.20;96.20;;;;;;4936717;29;20551;-68
2022/05/21 11:55:18;;;;;;;5.53;5.13;;;18.50;96.70;;;;;;4937371;29;20219;-67
2022/05/21 11:57:53;;;;;;;5.93;5.03;;;18.00;97.60;;;;;;4942314;29;20204;-67
2022/05/21 12:00:18;;;;;;;164.53;145.43;;;17.90;98.00;;;;;;4937097;29;20298;-67
2022/05/21 12:02:53;;;;;;;278.03;250.93;;;17.80;98.30;;;;;;4929942;29;20209;-67
2022/05/21 12:05:34;;;;;;;831.37;771.47;;;17.90;98.90;;;;;;4942018;29;20241;-68
2022/05/21 12:08:22;;;;;;;483.87;437.17;;;17.80;98.20;;;;;;4929895;29;20246;-67
2022/05/21 12:11:10;;;;;;;64.07;57.83;;;17.70;97.70;;;;;;4924971;29;21045;-68
2022/05/21 12:13:35;;;;;;;6.50;4.70;;;17.50;98.50;;;;;;4937991;29;20448;-70
2022/05/21 12:16:20;;;;;;;4.33;3.83;;;17.20;99.20;;;;;;4940770;29;20179;-69
2022/05/21 12:19:03;;;;;;;7.50;3.73;;;17.30;99.80;;;;;;4935702;28;20210;-69
2022/05/21 12:21:29;;;;;;;3.07;2.77;;;17.40;99.00;;;;;;4928445;29;20227;-69
2022/05/21 12:23:58;;;;;;;5.57;3.37;;;17.40;98.50;;;;;;4933372;29;20206;-68
2022/05/21 12:26:32;;;;;;;4.10;3.20;;;17.40;98.20;;;;;;4935825;28;20198;-70
2022/05/21 12:29:22;;;;;;;3.67;3.37;;;17.30;98.60;;;;;;4934333;29;20214;-69
2022/05/21 12:31:56;;;;;;;4.30;3.63;;;17.10;99.10;;;;;;4933301;29;20194;-69
2022/05/21 12:34:43;;;;;;;4.30;3.00;;;17.20;99.60;;;;;;4942828;28;20578;-69
2022/05/21 12:37:18;;;;;;;6.77;3.57;;;17.20;99.90;;;;;;4930281;29;20636;-71
2022/05/21 12:40:00;;;;;;;4.90;4.23;;;17.40;99.60;;;;;;4924454;29;20207;-70
2022/05/21 12:42:42;;;;;;;4.37;3.97;;;17.40;99.80;;;;;;4942838;29;20283;-70
2022/05/21 12:45:08;;;;;;;7.10;3.87;;;17.50;99.60;;;;;;4932956;28;20244;-70
2022/05/21 12:47:39;;;;;;;6.63;3.17;;;18.10;99.10;;;;;;4937762;28;20239;-68
2022/05/21 12:50:20;;;;;;;7.70;3.60;;;18.90;98.20;;;;;;4930152;29;20209;-67
2022/05/21 12:52:50;;;;;;;6.07;3.93;;;19.90;96.20;;;;;;4940354;29;20199;-68
2022/05/21 12:55:30;;;;;;;6.00;3.03;;;20.20;95.10;;;;;;4930204;28;20227;-69
2022/05/21 12:58:18;;;;;;;5.33;2.73;;;19.40;94.40;;;;;;4934738;29;20211;-70
2022/05/21 13:00:51;;;;;;;6.13;3.23;;;19.20;95.00;;;;;;4931481;29;20202;-70
2022/05/21 13:03:18;;;;;;;6.07;3.20;;;18.90;95.30;;;;;;4939576;28;20730;-71
2022/05/21 13:06:00;;;;;;;5.53;2.97;;;19.00;95.10;;;;;;4936061;29;20196;-70
2022/05/21 13:08:28;;;;;;;4.70;2.80;;;19.40;94.30;;;;;;4929666;29;20324;-70
2022/05/21 13:11:21;;;;;;;3.90;2.63;;;20.00;93.80;;;;;;4940449;29;20201;-71
2022/05/21 13:14:03;;;;;;;4.53;2.70;;;20.40;92.50;;;;;;4929997;29;20237;-71
2022/05/21 13:16:29;;;;;;;8.57;3.33;;;20.40;93.10;;;;;;4930663;28;20285;-71
2022/05/21 13:19:14;;;;;;;5.57;3.20;;;19.80;93.30;;;;;;4933223;29;20210;-71
2022/05/21 13:21:46;;;;;;;5.70;3.20;;;19.50;94.20;;;;;;4939663;28;20205;-71
2022/05/21 13:24:41;;;;;;;5.53;2.90;;;19.30;94.80;;;;;;4924334;29;20221;-71
2022/05/21 13:27:21;;;;;;;6.27;1.80;;;20.20;94.00;;;;;;4939230;29;20217;-67
2022/05/21 13:29:48;;;;;;;3.63;1.70;;;21.10;92.10;;;;;;4936654;29;20211;-69
2022/05/21 13:32:31;;;;;;;3.33;1.43;;;21.70;90.30;;;;;;4928375;29;20289;-67
2022/05/21 13:35:03;;;;;;;1.67;1.30;;;22.00;88.80;;;;;;4922064;29;20228;-68
2022/05/21 13:37:46;;;;;;;3.53;1.57;;;22.30;87.10;;;;;;4934822;29;20193;-68